sensor_id;sensor_type;location;lat;lon;timestamp;pressure;altitude;pressure_sealevel;temperature;humidity
71735;BME280;59577;52.122;5.406;2023-02-19T00:01:43;101827.59;;;9.32;100.00
71735;BME280;59577;52.122;5.406;2023-02-19T00:04:18;101822.97;;;9.32;100.00
71735;BME280;59577;52.122;5.406;2023-02-19T00:06:46;101824.41;;;9.30;100.00
71735;BME280;59577;52.122;5.406;2023-02-19T00:09:15;101819.78;;;9.30;100.00
71735;BME280;59577;52.122;5.406;2023-02-19T00:11:42;101832.03;;;9.28;100.00
71735;BME280;59577;52.122;5.406;2023-02-19T00:14:10;101832.84;;;9.28;100.00
71735;BME280;59577;52.122;5.406;2023-02-19T00:16:40;101833.94;;;9.27;100.00
71735;BME280;59577;52.122;5.406;2023-02-19T00:19:09;101831.53;;;9.26;100.00
71735;BME280;59577;52.122;5.406;2023-02-19T00:21:36;101828.84;;;9.26;100.00
71735;BME280;59577;52.122;5.406;2023-02-19T00:24:05;101831.53;;;9.26;100.00
71735;BME280;59577;52.122;5.406;2023-02-19T00:26:32;101840.78;;;9.25;100.00
71735;BME280;59577;52.122;5.406;2023-02-19T00:29:00;101846.19;;;9.25;100.00
71735;BME280;59577;52.122;5.406;2023-02-19T00:31:32;101849.66;;;9.25;100.00
71735;BME280;59577;52.122;5.406;2023-02-19T00:34:03;101842.34;;;9.26;100.00
71735;BME280;59577;52.122;5.406;2023-02-19T00:36:31;101846.66;;;9.27;100.00
71735;BME280;59577;52.122;5.406;2023-02-19T00:38:59;101844.44;;;9.29;100.00
71735;BME280;59577;52.122;5.406;2023-02-19T00:41:25;101847.59;;;9.31;100.00
71735;BME280;59577;52.122;5.406;2023-02-19T00:44:00;101840.00;;;9.33;100.00
71735;BME280;59577;52.122;5.406;2023-02-19T00:46:36;101842.38;;;9.34;100.00
71735;BME280;59577;52.122;5.406;2023-02-19T00:49:04;101850.47;;;9.34;100.00
71735;BME280;59577;52.122;5.406;2023-02-19T00:51:33;101849.97;;;9.32;100.00
71735;BME280;59577;52.122;5.406;2023-02-19T00:54:00;101848.41;;;9.31;100.00
71735;BME280;59577;52.122;5.406;2023-02-19T00:56:27;101848.72;;;9.30;100.00
71735;BME280;59577;52.122;5.406;2023-02-19T00:58:54;101842.84;;;9.28;100.00
71735;BME280;59577;52.122;5.406;2023-02-19T01:01:21;101844.75;;;9.27;100.00
71735;BME280;59577;52.122;5.406;2023-02-19T01:03:48;101844.25;;;9.25;100.00
71735;BME280;59577;52.122;5.406;2023-02-19T01:06:16;101852.38;;;9.25;100.00
71735;BME280;59577;52.122;5.406;2023-02-19T01:08:43;101856.19;;;9.24;100.00
71735;BME280;59577;52.122;5.406;2023-02-19T01:11:11;101849.19;;;9.23;100.00
71735;BME280;59577;52.122;5.406;2023-02-19T01:13:38;101861.91;;;9.22;100.00
71735;BME280;59577;52.122;5.406;2023-02-19T01:16:14;101863.03;;;9.21;100.00
71735;BME280;59577;52.122;5.406;2023-02-19T01:18:41;101868.72;;;9.20;100.00
71735;BME280;59577;52.122;5.406;2023-02-19T01:21:12;101868.72;;;9.20;100.00
71735;BME280;59577;52.122;5.406;2023-02-19T01:23:39;101867.94;;;9.19;100.00
71735;BME280;59577;52.122;5.406;2023-02-19T01:26:07;101879.84;;;9.18;100.00
71735;BME280;59577;52.122;5.406;2023-02-19T01:28:34;101872.56;;;9.19;100.00
71735;BME280;59577;52.122;5.406;2023-02-19T01:31:03;101879.84;;;9.18;100.00
71735;BME280;59577;52.122;5.406;2023-02-19T01:33:30;101879.38;;;9.16;100.00
71735;BME280;59577;52.122;5.406;2023-02-19T01:35:57;101882.38;;;9.15;100.00
71735;BME280;59577;52.122;5.406;2023-02-19T01:38:23;101885.91;;;9.15;100.00
71735;BME280;59577;52.122;5.406;2023-02-19T01:41:01;101880.16;;;9.17;100.00
71735;BME280;59577;52.122;5.406;2023-02-19T01:43:31;101879.84;;;9.18;100.00
71735;BME280;59577;52.122;5.406;2023-02-19T01:45:58;101888.78;;;9.19;100.00
71735;BME280;59577;52.122;5.406;2023-02-19T01:48:36;101887.66;;;9.20;100.00
71735;BME280;59577;52.122;5.406;2023-02-19T01:51:05;101884.94;;;9.20;100.00
71735;BME280;59577;52.122;5.406;2023-02-19T01:53:36;101885.25;;;9.18;100.00
71735;BME280;59577;52.122;5.406;2023-02-19T01:56:05;101883.22;;;9.15;100.00
71735;BME280;59577;52.122;5.406;2023-02-19T01:58:34;101878.91;;;9.14;100.00
71735;BME280;59577;52.122;5.406;2023-02-19T02:01:04;101886.22;;;9.14;100.00
71735;BME280;59577;52.122;5.406;2023-02-19T02:03:32;101884.94;;;9.11;100.00
71735;BME280;59577;52.122;5.406;2023-02-19T02:06:16;101881.44;;;9.11;100.00
71735;BME280;59577;52.122;5.406;2023-02-19T02:08:45;101885.56;;;9.08;100.00
71735;BME280;59577;52.122;5.406;2023-02-19T02:11:31;101883.16;;;9.07;100.00
71735;BME280;59577;52.122;5.406;2023-02-19T02:13:58;101882.69;;;9.04;100.00
71735;BME280;59577;52.122;5.406;2023-02-19T02:21:48;101891.75;;;9.00;100.00
71735;BME280;59577;52.122;5.406;2023-02-19T02:32:26;101889.50;;;8.93;100.00
71735;BME280;59577;52.122;5.406;2023-02-19T02:35:05;101888.69;;;8.93;100.00
71735;BME280;59577;52.122;5.406;2023-02-19T02:37:36;101892.53;;;8.92;100.00
71735;BME280;59577;52.122;5.406;2023-02-19T02:40:04;101900.63;;;8.92;100.00
71735;BME280;59577;52.122;5.406;2023-02-19T02:42:34;101895.22;;;8.92;100.00
71735;BME280;59577;52.122;5.406;2023-02-19T02:45:24;101902.19;;;8.93;100.00
71735;BME280;59577;52.122;5.406;2023-02-19T02:48:06;101901.56;;;8.96;100.00
71735;BME280;59577;52.122;5.406;2023-02-19T02:50:41;101911.28;;;8.97;100.00
71735;BME280;59577;52.122;5.406;2023-02-19T02:53:15;101906.97;;;8.96;100.00
71735;BME280;59577;52.122;5.406;2023-02-19T02:56:03;101910.97;;;8.98;100.00
71735;BME280;59577;52.122;5.406;2023-02-19T02:58:31;101905.25;;;9.00;100.00
71735;BME280;59577;52.122;5.406;2023-02-19T03:01:03;101913.66;;;8.98;100.00
71735;BME280;59577;52.122;5.406;2023-02-19T03:03:53;101913.19;;;8.96;100.00
71735;BME280;59577;52.122;5.406;2023-02-19T03:06:24;101912.38;;;8.96;100.00
71735;BME280;59577;52.122;5.406;2023-02-19T03:08:59;101912.69;;;8.94;100.00
71735;BME280;59577;52.122;5.406;2023-02-19T03:11:28;101918.41;;;8.93;100.00
71735;BME280;59577;52.122;5.406;2023-02-19T03:14:21;101916.81;;;8.92;100.00
71735;BME280;59577;52.122;5.406;2023-02-19T03:17:12;101919.53;;;8.92;100.00
71735;BME280;59577;52.122;5.406;2023-02-19T03:20:03;101924.44;;;8.90;100.00
71735;BME280;59577;52.122;5.406;2023-02-19T03:22:32;101924.44;;;8.90;100.00
71735;BME280;59577;52.122;5.406;2023-02-19T03:25:04;101921.75;;;8.90;100.00
71735;BME280;59577;52.122;5.406;2023-02-19T03:27:51;101929.38;;;8.88;100.00
71735;BME280;59577;52.122;5.406;2023-02-19T03:30:22;101924.28;;;8.86;100.00
71735;BME280;59577;52.122;5.406;2023-02-19T03:32:54;101934.56;;;8.84;100.00
71735;BME280;59577;52.122;5.406;2023-02-19T03:35:25;101929.16;;;8.84;100.00
71735;BME280;59577;52.122;5.406;2023-02-19T03:40:55;101931.41;;;8.82;100.00
71735;BME280;59577;52.122;5.406;2023-02-19T03:43:34;101937.91;;;8.81;100.00
71735;BME280;59577;52.122;5.406;2023-02-19T03:48:48;101946.81;;;8.81;100.00
71735;BME280;59577;52.122;5.406;2023-02-19T03:51:19;101940.78;;;8.84;100.00
71735;BME280;59577;52.122;5.406;2023-02-19T03:56:47;101963.34;;;8.89;100.00
71735;BME280;59577;52.122;5.406;2023-02-19T03:59:36;101964.94;;;8.90;100.00
71735;BME280;59577;52.122;5.406;2023-02-19T04:02:11;101959.56;;;8.90;100.00
71735;BME280;59577;52.122;5.406;2023-02-19T04:05:10;101966.81;;;8.89;100.00
71735;BME280;59577;52.122;5.406;2023-02-19T04:07:42;101967.16;;;8.88;100.00
71735;BME280;59577;52.122;5.406;2023-02-19T04:10:12;101973.97;;;8.85;100.00
71735;BME280;59577;52.122;5.406;2023-02-19T04:12:42;101969.19;;;8.82;100.00
71735;BME280;59577;52.122;5.406;2023-02-19T04:15:13;101983.00;;;8.80;100.00
71735;BME280;59577;52.122;5.406;2023-02-19T04:17:47;101983.31;;;8.79;100.00
71735;BME280;59577;52.122;5.406;2023-02-19T04:20:18;101987.91;;;8.78;100.00
71735;BME280;59577;52.122;5.406;2023-02-19T04:22:45;101989.34;;;8.76;100.00
71735;BME280;59577;52.122;5.406;2023-02-19T04:25:12;101993.13;;;8.75;100.00
71735;BME280;59577;52.122;5.406;2023-02-19T04:27:39;101990.44;;;8.75;100.00
71735;BME280;59577;52.122;5.406;2023-02-19T04:30:07;101996.16;;;8.73;100.00
71735;BME280;59577;52.122;5.406;2023-02-19T04:32:34;101998.06;;;8.73;100.00
71735;BME280;59577;52.122;5.406;2023-02-19T04:35:01;101991.38;;;8.70;100.00
71735;BME280;59577;52.122;5.406;2023-02-19T04:37:27;102005.97;;;8.69;100.00
71735;BME280;59577;52.122;5.406;2023-02-19T04:39:54;102009.47;;;8.70;100.00
71735;BME280;59577;52.122;5.406;2023-02-19T04:42:20;102011.69;;;8.68;100.00
71735;BME280;59577;52.122;5.406;2023-02-19T04:44:46;102016.28;;;8.67;100.00
71735;BME280;59577;52.122;5.406;2023-02-19T04:47:13;102030.88;;;8.66;100.00
71735;BME280;59577;52.122;5.406;2023-02-19T04:49:44;102030.88;;;8.66;100.00
71735;BME280;59577;52.122;5.406;2023-02-19T04:52:11;102035.50;;;8.65;100.00
71735;BME280;59577;52.122;5.406;2023-02-19T04:54:37;102032.50;;;8.67;100.00
71735;BME280;59577;52.122;5.406;2023-02-19T04:57:04;102038.84;;;8.71;100.00
71735;BME280;59577;52.122;5.406;2023-02-19T04:59:31;102048.22;;;8.74;100.00
71735;BME280;59577;52.122;5.406;2023-02-19T05:01:58;102052.22;;;8.76;100.00
71735;BME280;59577;52.122;5.406;2023-02-19T05:04:25;102047.63;;;8.77;100.00
71735;BME280;59577;52.122;5.406;2023-02-19T05:06:51;102048.44;;;8.77;100.00
71735;BME280;59577;52.122;5.406;2023-02-19T05:09:18;102054.31;;;8.79;100.00
71735;BME280;59577;52.122;5.406;2023-02-19T05:11:45;102051.91;;;8.78;100.00
71735;BME280;59577;52.122;5.406;2023-02-19T05:14:11;102056.84;;;8.76;100.00
71735;BME280;59577;52.122;5.406;2023-02-19T05:16:38;102066.03;;;8.75;100.00
71735;BME280;59577;52.122;5.406;2023-02-19T05:19:05;102063.31;;;8.75;100.00
71735;BME280;59577;52.122;5.406;2023-02-19T05:21:35;102065.84;;;8.71;100.00
71735;BME280;59577;52.122;5.406;2023-02-19T05:24:02;102071.25;;;8.71;100.00
71735;BME280;59577;52.122;5.406;2023-02-19T05:26:44;102075.38;;;8.69;100.00
71735;BME280;59577;52.122;5.406;2023-02-19T05:29:14;102069.16;;;8.68;100.00
71735;BME280;59577;52.122;5.406;2023-02-19T05:31:41;102080.25;;;8.66;100.00
71735;BME280;59577;52.122;5.406;2023-02-19T05:34:08;102080.56;;;8.65;100.00
71735;BME280;59577;52.122;5.406;2023-02-19T05:36:36;102080.56;;;8.65;100.00
71735;BME280;59577;52.122;5.406;2023-02-19T05:39:06;102076.28;;;8.64;100.00
71735;BME280;59577;52.122;5.406;2023-02-19T05:41:38;102077.69;;;8.61;100.00
71735;BME280;59577;52.122;5.406;2023-02-19T05:44:19;102087.69;;;8.61;100.00
71735;BME280;59577;52.122;5.406;2023-02-19T05:46:46;102085.28;;;8.59;100.00
71735;BME280;59577;52.122;5.406;2023-02-19T05:49:24;102075.63;;;8.58;100.00
71735;BME280;59577;52.122;5.406;2023-02-19T05:51:57;102083.72;;;8.58;100.00
71735;BME280;59577;52.122;5.406;2023-02-19T05:54:37;102071.63;;;8.56;100.00
71735;BME280;59577;52.122;5.406;2023-02-19T05:57:11;102077.00;;;8.56;100.00
71735;BME280;59577;52.122;5.406;2023-02-19T05:59:38;102085.09;;;8.56;100.00
71735;BME280;59577;52.122;5.406;2023-02-19T06:02:11;102092.59;;;8.59;100.00
71735;BME280;59577;52.122;5.406;2023-02-19T06:04:38;102092.00;;;8.62;100.00
71735;BME280;59577;52.122;5.406;2023-02-19T06:07:06;102096.75;;;8.65;100.00
71735;BME280;59577;52.122;5.406;2023-02-19T06:09:33;102099.97;;;8.67;100.00
71735;BME280;59577;52.122;5.406;2023-02-19T06:12:26;102097.75;;;8.69;100.00
71735;BME280;59577;52.122;5.406;2023-02-19T06:14:57;102111.56;;;8.68;100.00
71735;BME280;59577;52.122;5.406;2023-02-19T06:17:29;102109.94;;;8.66;100.00
71735;BME280;59577;52.122;5.406;2023-02-19T06:20:02;102112.16;;;8.64;100.00
71735;BME280;59577;52.122;5.406;2023-02-19T06:22:42;102123.25;;;8.63;100.00
71735;BME280;59577;52.122;5.406;2023-02-19T06:25:10;102134.34;;;8.61;100.00
71735;BME280;59577;52.122;5.406;2023-02-19T06:27:38;102136.88;;;8.58;100.00
71735;BME280;59577;52.122;5.406;2023-02-19T06:30:07;102141.19;;;8.59;100.00
71735;BME280;59577;52.122;5.406;2023-02-19T06:32:34;102152.56;;;8.56;100.00
71735;BME280;59577;52.122;5.406;2023-02-19T06:35:03;102152.88;;;8.54;100.00
71735;BME280;59577;52.122;5.406;2023-02-19T06:37:37;102141.91;;;8.51;100.00
71735;BME280;59577;52.122;5.406;2023-02-19T06:40:07;102150.28;;;8.49;100.00
71735;BME280;59577;52.122;5.406;2023-02-19T06:43:00;102153.59;;;8.46;100.00
71735;BME280;59577;52.122;5.406;2023-02-19T06:45:27;102155.19;;;8.47;100.00
71735;BME280;59577;52.122;5.406;2023-02-19T06:48:00;102158.50;;;8.44;100.00
71735;BME280;59577;52.122;5.406;2023-02-19T06:50:27;102163.09;;;8.43;100.00
71735;BME280;59577;52.122;5.406;2023-02-19T06:52:58;102164.47;;;8.41;100.00
71735;BME280;59577;52.122;5.406;2023-02-19T06:55:54;102160.19;;;8.40;100.00
71735;BME280;59577;52.122;5.406;2023-02-19T06:58:21;102173.19;;;8.38;100.00
71735;BME280;59577;52.122;5.406;2023-02-19T07:00:52;102180.47;;;8.37;100.00
71735;BME280;59577;52.122;5.406;2023-02-19T07:03:22;102176.97;;;8.37;100.00
71735;BME280;59577;52.122;5.406;2023-02-19T07:06:04;102182.88;;;8.39;100.00
71735;BME280;59577;52.122;5.406;2023-02-19T07:08:31;102200.09;;;8.43;100.00
71735;BME280;59577;52.122;5.406;2023-02-19T07:11:01;102200.59;;;8.45;100.00
71735;BME280;59577;52.122;5.406;2023-02-19T07:13:32;102202.97;;;8.46;100.00
71735;BME280;59577;52.122;5.406;2023-02-19T07:16:01;102203.19;;;8.50;100.00
71735;BME280;59577;52.122;5.406;2023-02-19T07:18:33;102207.97;;;8.53;100.00
71735;BME280;59577;52.122;5.406;2023-02-19T07:21:14;102213.66;;;8.52;100.00
71735;BME280;59577;52.122;5.406;2023-02-19T07:23:44;102215.25;;;8.53;100.00
71735;BME280;59577;52.122;5.406;2023-02-19T07:26:16;102227.16;;;8.52;100.00
71735;BME280;59577;52.122;5.406;2023-02-19T07:29:00;102224.75;;;8.50;100.00
71735;BME280;59577;52.122;5.406;2023-02-19T07:31:28;102237.47;;;8.50;100.00
71735;BME280;59577;52.122;5.406;2023-02-19T07:33:56;102224.75;;;8.50;100.00
71735;BME280;59577;52.122;5.406;2023-02-19T07:36:28;102231.44;;;8.53;100.00
71735;BME280;59577;52.122;5.406;2023-02-19T07:39:00;102237.97;;;8.52;100.00
71735;BME280;59577;52.122;5.406;2023-02-19T07:41:29;102244.44;;;8.51;100.00
71735;BME280;59577;52.122;5.406;2023-02-19T07:44:09;102241.44;;;8.52;100.00
71735;BME280;59577;52.122;5.406;2023-02-19T07:46:40;102231.44;;;8.53;100.00
71735;BME280;59577;52.122;5.406;2023-02-19T07:49:11;102239.25;;;8.54;100.00
71735;BME280;59577;52.122;5.406;2023-02-19T07:51:43;102242.22;;;8.53;100.00
71735;BME280;59577;52.122;5.406;2023-02-19T07:54:11;102268.63;;;8.56;100.00
71735;BME280;59577;52.122;5.406;2023-02-19T07:56:51;102269.22;;;8.53;100.00
71735;BME280;59577;52.122;5.406;2023-02-19T07:59:33;102263.03;;;8.52;100.00
71735;BME280;59577;52.122;5.406;2023-02-19T08:02:00;102268.63;;;8.56;100.00
71735;BME280;59577;52.122;5.406;2023-02-19T08:04:48;102267.03;;;8.55;100.00
71735;BME280;59577;52.122;5.406;2023-02-19T08:07:15;102275.94;;;8.55;100.00
71735;BME280;59577;52.122;5.406;2023-02-19T08:09:43;102277.00;;;8.54;100.00
71735;BME280;59577;52.122;5.406;2023-02-19T08:12:10;102284.81;;;8.56;100.00
71735;BME280;59577;52.122;5.406;2023-02-19T08:14:59;102287.41;;;8.61;100.00
71735;BME280;59577;52.122;5.406;2023-02-19T08:17:32;102282.69;;;8.66;100.00
71735;BME280;59577;52.122;5.406;2023-02-19T08:20:00;102285.28;;;8.72;100.00
71735;BME280;59577;52.122;5.406;2023-02-19T08:22:33;102292.00;;;8.74;100.00
71735;BME280;59577;52.122;5.406;2023-02-19T08:25:00;102295.19;;;8.76;100.00
71735;BME280;59577;52.122;5.406;2023-02-19T08:27:43;102311.88;;;8.78;100.00
71735;BME280;59577;52.122;5.406;2023-02-19T08:30:18;102321.88;;;8.78;100.00
71735;BME280;59577;52.122;5.406;2023-02-19T08:32:50;102311.69;;;8.75;100.00
71735;BME280;59577;52.122;5.406;2023-02-19T08:35:17;102314.69;;;8.73;100.00
71735;BME280;59577;52.122;5.406;2023-02-19T08:37:54;102327.78;;;8.80;100.00
71735;BME280;59577;52.122;5.406;2023-02-19T08:40:29;102320.66;;;8.84;100.00
71735;BME280;59577;52.122;5.406;2023-02-19T08:43:04;102330.25;;;8.90;100.00
71735;BME280;59577;52.122;5.406;2023-02-19T08:45:31;102329.66;;;8.93;100.00
71735;BME280;59577;52.122;5.406;2023-02-19T08:48:04;102318.44;;;9.00;100.00
71735;BME280;59577;52.122;5.406;2023-02-19T08:50:33;102333.31;;;9.11;100.00
71735;BME280;59577;52.122;5.406;2023-02-19T08:53:06;102337.31;;;9.14;100.00
71735;BME280;59577;52.122;5.406;2023-02-19T08:55:42;102333.31;;;9.11;100.00
71735;BME280;59577;52.122;5.406;2023-02-19T08:58:14;102322.63;;;9.06;100.00
71735;BME280;59577;52.122;5.406;2023-02-19T09:00:42;102329.13;;;9.05;100.00
71735;BME280;59577;52.122;5.406;2023-02-19T09:03:10;102337.31;;;9.14;100.00
71735;BME280;59577;52.122;5.406;2023-02-19T09:05:48;102339.47;;;9.26;100.00
71735;BME280;59577;52.122;5.406;2023-02-19T09:08:20;102335.66;;;9.27;100.00
71735;BME280;59577;52.122;5.406;2023-02-19T09:11:14;102333.41;;;9.43;100.00
71735;BME280;59577;52.122;5.406;2023-02-19T09:13:42;102337.28;;;9.50;100.00
71735;BME280;59577;52.122;5.406;2023-02-19T09:16:09;102346.25;;;9.59;100.00
71735;BME280;59577;52.122;5.406;2023-02-19T09:18:36;102354.00;;;9.75;100.00
71735;BME280;59577;52.122;5.406;2023-02-19T09:21:10;102358.19;;;9.81;100.00
71735;BME280;59577;52.122;5.406;2023-02-19T09:23:38;102351.47;;;9.78;100.00
71735;BME280;59577;52.122;5.406;2023-02-19T09:26:10;102359.28;;;9.80;100.00
71735;BME280;59577;52.122;5.406;2023-02-19T09:29:04;102361.19;;;9.79;100.00
71735;BME280;59577;52.122;5.406;2023-02-19T09:31:34;102373.59;;;9.81;100.00
71735;BME280;59577;52.122;5.406;2023-02-19T09:34:01;102386.81;;;9.82;100.00
71735;BME280;59577;52.122;5.406;2023-02-19T09:36:28;102393.25;;;9.72;100.00
71735;BME280;59577;52.122;5.406;2023-02-19T09:38:55;102392.69;;;9.62;100.00
71735;BME280;59577;52.122;5.406;2023-02-19T09:41:32;102402.53;;;9.57;100.00
71735;BME280;59577;52.122;5.406;2023-02-19T09:44:05;102406.81;;;9.58;100.00
71735;BME280;59577;52.122;5.406;2023-02-19T09:46:46;102420.16;;;9.55;100.00
71735;BME280;59577;52.122;5.406;2023-02-19T09:52:06;102425.88;;;9.39;100.00
71735;BME280;59577;52.122;5.406;2023-02-19T09:54:38;102428.94;;;9.38;100.00
71735;BME280;59577;52.122;5.406;2023-02-19T09:57:15;102441.63;;;9.37;100.00
71735;BME280;59577;52.122;5.406;2023-02-19T09:59:52;102445.94;;;9.38;100.00
71735;BME280;59577;52.122;5.406;2023-02-19T10:02:29;102444.69;;;9.45;100.00
71735;BME280;59577;52.122;5.406;2023-02-19T10:05:13;102441.09;;;9.49;100.00
71735;BME280;59577;52.122;5.406;2023-02-19T10:07:50;102454.00;;;9.52;100.00
71735;BME280;59577;52.122;5.406;2023-02-19T10:10:26;102460.88;;;9.58;100.00
71735;BME280;59577;52.122;5.406;2023-02-19T10:13:09;102470.31;;;9.61;100.00
71735;BME280;59577;52.122;5.406;2023-02-19T10:15:55;102472.53;;;9.59;100.00
71735;BME280;59577;52.122;5.406;2023-02-19T10:18:41;102478.53;;;9.56;100.00
71735;BME280;59577;52.122;5.406;2023-02-19T10:21:40;102496.66;;;9.55;100.00
71735;BME280;59577;52.122;5.406;2023-02-19T10:24:15;102495.66;;;9.51;100.00
71735;BME280;59577;52.122;5.406;2023-02-19T10:26:49;102495.03;;;9.54;100.00
71735;BME280;59577;52.122;5.406;2023-02-19T10:29:16;102502.56;;;9.57;100.00
71735;BME280;59577;52.122;5.406;2023-02-19T10:32:22;102503.66;;;9.56;99.96
71735;BME280;59577;52.122;5.406;2023-02-19T10:35:14;102512.38;;;9.53;99.71
71735;BME280;59577;52.122;5.406;2023-02-19T10:37:47;102517.38;;;9.46;99.30
71735;BME280;59577;52.122;5.406;2023-02-19T10:40:25;102518.38;;;9.50;99.95
71735;BME280;59577;52.122;5.406;2023-02-19T10:43:00;102523.69;;;9.55;99.74
71735;BME280;59577;52.122;5.406;2023-02-19T10:45:37;102520.88;;;9.60;99.88
71735;BME280;59577;52.122;5.406;2023-02-19T10:48:21;102517.44;;;9.69;99.73
71735;BME280;59577;52.122;5.406;2023-02-19T10:50:52;102528.59;;;9.67;99.52
71735;BME280;59577;52.122;5.406;2023-02-19T10:53:38;102529.19;;;9.64;99.31
71735;BME280;59577;52.122;5.406;2023-02-19T10:56:10;102527.69;;;9.58;98.93
71735;BME280;59577;52.122;5.406;2023-02-19T10:58:42;102530.38;;;9.58;99.21
71735;BME280;59577;52.122;5.406;2023-02-19T11:01:24;102515.88;;;9.54;98.94
71735;BME280;59577;52.122;5.406;2023-02-19T11:04:15;102502.06;;;9.55;99.08
71735;BME280;59577;52.122;5.406;2023-02-19T11:06:44;102500.03;;;9.61;98.89
71735;BME280;59577;52.122;5.406;2023-02-19T11:09:32;102509.13;;;9.65;98.87
71735;BME280;59577;52.122;5.406;2023-02-19T11:12:09;102513.75;;;9.65;98.53
71735;BME280;59577;52.122;5.406;2023-02-19T11:14:44;102513.44;;;9.66;98.24
71735;BME280;59577;52.122;5.406;2023-02-19T11:17:31;102521.75;;;9.70;98.72
71735;BME280;59577;52.122;5.406;2023-02-19T11:20:03;102528.97;;;9.74;98.95
71735;BME280;59577;52.122;5.406;2023-02-19T11:22:38;102527.53;;;9.77;98.78
71735;BME280;59577;52.122;5.406;2023-02-19T11:27:52;102536.56;;;9.72;98.76
71735;BME280;59577;52.122;5.406;2023-02-19T11:30:33;102540.06;;;9.73;98.98
71735;BME280;59577;52.122;5.406;2023-02-19T11:38:58;102533.41;;;9.93;98.96
71735;BME280;59577;52.122;5.406;2023-02-19T11:48:03;102547.13;;;9.96;99.18
71735;BME280;59577;52.122;5.406;2023-02-19T11:50:47;102542.53;;;9.97;99.37
71735;BME280;59577;52.122;5.406;2023-02-19T11:53:24;102537.41;;;9.95;99.57
71735;BME280;59577;52.122;5.406;2023-02-19T11:56:25;102530.41;;;9.94;99.37
71735;BME280;59577;52.122;5.406;2023-02-19T12:01:57;102529.53;;;9.85;98.82
71735;BME280;59577;52.122;5.406;2023-02-19T12:10:34;102536.22;;;9.88;98.72
71735;BME280;59577;52.122;5.406;2023-02-19T12:13:46;102545.34;;;9.92;98.52
71735;BME280;59577;52.122;5.406;2023-02-19T12:16:42;102552.88;;;9.81;97.73
71735;BME280;59577;52.122;5.406;2023-02-19T12:22:38;102547.31;;;9.36;95.53
71735;BME280;59577;52.122;5.406;2023-02-19T12:25:28;102561.16;;;9.34;95.70
71735;BME280;59577;52.122;5.406;2023-02-19T12:28:27;102549.31;;;9.30;95.24
71735;BME280;59577;52.122;5.406;2023-02-19T12:31:14;102550.00;;;9.22;95.19
71735;BME280;59577;52.122;5.406;2023-02-19T12:34:20;102551.03;;;9.12;94.81
71735;BME280;59577;52.122;5.406;2023-02-19T12:37:12;102563.81;;;9.07;94.98
71735;BME280;59577;52.122;5.406;2023-02-19T12:40:52;102568.13;;;9.08;95.15
71735;BME280;59577;52.122;5.406;2023-02-19T12:45:59;102574.00;;;8.96;94.81
71735;BME280;59577;52.122;5.406;2023-02-19T12:54:16;102587.19;;;8.83;95.05
71735;BME280;59577;52.122;5.406;2023-02-19T12:56:54;102583.31;;;8.90;95.81
71735;BME280;59577;52.122;5.406;2023-02-19T12:59:42;102596.72;;;8.95;96.29
71735;BME280;59577;52.122;5.406;2023-02-19T13:02:40;102604.28;;;8.93;95.72
71735;BME280;59577;52.122;5.406;2023-02-19T13:11:00;102603.09;;;8.85;95.82
71735;BME280;59577;52.122;5.406;2023-02-19T13:13:47;102606.44;;;8.77;95.60
71735;BME280;59577;52.122;5.406;2023-02-19T13:16:19;102617.16;;;8.82;95.75
71735;BME280;59577;52.122;5.406;2023-02-19T13:18:54;102624.09;;;8.88;96.06
71735;BME280;59577;52.122;5.406;2023-02-19T13:21:30;102630.28;;;8.89;95.88
71735;BME280;59577;52.122;5.406;2023-02-19T13:24:21;102631.91;;;8.90;96.30
71735;BME280;59577;52.122;5.406;2023-02-19T13:32:24;102645.66;;;8.74;94.84
71735;BME280;59577;52.122;5.406;2023-02-19T13:37:43;102643.31;;;8.68;95.31
71735;BME280;59577;52.122;5.406;2023-02-19T13:40:36;102641.41;;;8.68;94.33
71735;BME280;59577;52.122;5.406;2023-02-19T13:43:30;102640.91;;;8.66;94.30
71735;BME280;59577;52.122;5.406;2023-02-19T13:46:08;102647.41;;;8.65;95.15
71735;BME280;59577;52.122;5.406;2023-02-19T13:48:40;102659.31;;;8.64;95.33
71735;BME280;59577;52.122;5.406;2023-02-19T13:51:37;102660.69;;;8.61;94.87
71735;BME280;59577;52.122;5.406;2023-02-19T13:54:13;102662.88;;;8.59;95.17
71735;BME280;59577;52.122;5.406;2023-02-19T13:56:49;102661.06;;;8.55;95.17
71735;BME280;59577;52.122;5.406;2023-02-19T13:59:38;102661.78;;;8.60;94.83
71735;BME280;59577;52.122;5.406;2023-02-19T14:04:53;102663.84;;;8.69;95.29
71735;BME280;59577;52.122;5.406;2023-02-19T14:10:00;102673.75;;;8.73;95.63
71735;BME280;59577;52.122;5.406;2023-02-19T14:12:36;102667.75;;;8.76;95.64
71735;BME280;59577;52.122;5.406;2023-02-19T14:17:54;102670.97;;;8.78;96.02
71735;BME280;59577;52.122;5.406;2023-02-19T14:20:41;102659.06;;;8.79;95.76
71735;BME280;59577;52.122;5.406;2023-02-19T14:23:23;102665.78;;;8.82;95.71
71735;BME280;59577;52.122;5.406;2023-02-19T14:26:05;102662.69;;;8.89;95.19
71735;BME280;59577;52.122;5.406;2023-02-19T14:28:47;102662.13;;;8.92;95.33
71735;BME280;59577;52.122;5.406;2023-02-19T14:31:36;102655.09;;;8.91;94.96
71735;BME280;59577;52.122;5.406;2023-02-19T14:34:05;102651.53;;;8.95;94.76
71735;BME280;59577;52.122;5.406;2023-02-19T14:36:55;102644.72;;;8.98;94.96
71735;BME280;59577;52.122;5.406;2023-02-19T14:39:32;102640.84;;;9.04;94.67
71735;BME280;59577;52.122;5.406;2023-02-19T14:42:10;102636.44;;;9.08;94.28
71735;BME280;59577;52.122;5.406;2023-02-19T14:44:47;102633.16;;;9.11;93.80
71735;BME280;59577;52.122;5.406;2023-02-19T14:47:18;102620.75;;;9.10;93.39
71735;BME280;59577;52.122;5.406;2023-02-19T14:49:51;102623.75;;;9.09;93.46
71735;BME280;59577;52.122;5.406;2023-02-19T14:52:41;102622.53;;;9.01;92.60
71735;BME280;59577;52.122;5.406;2023-02-19T14:55:31;102627.13;;;9.00;92.19